sensor_id;sensor_type;location;lat;lon;timestamp;P1;durP1;ratioP1;P2;durP2;ratioP2
74981;SDS011;63532;50.766;18.944;2024-02-26T06:32:58;305.48;;;77.30;;
74981;SDS011;63532;50.766;18.944;2024-02-26T06:36:04;159.65;;;44.15;;
74981;SDS011;63532;50.766;18.944;2024-02-26T06:39:10;137.25;;;40.00;;
74981;SDS011;63532;50.766;18.944;2024-02-26T06:42:15;101.78;;;32.00;;
74981;SDS011;63532;50.766;18.944;2024-02-26T06:45:19;98.28;;;31.33;;
74981;SDS011;63532;50.766;18.944;2024-02-26T06:48:25;118.93;;;37.17;;
74981;SDS011;63532;50.766;18.944;2024-02-26T06:51:30;131.77;;;40.03;;
74981;SDS011;63532;50.766;18.944;2024-02-26T06:54:35;168.52;;;48.00;;
74981;SDS011;63532;50.766;18.944;2024-02-26T06:57:39;339.02;;;85.65;;
74981;SDS011;63532;50.766;18.944;2024-02-26T07:00:44;526.97;;;133.85;;
74981;SDS011;63532;50.766;18.944;2024-02-26T07:03:50;554.97;;;138.35;;
74981;SDS011;63532;50.766;18.944;2024-02-26T07:06:55;389.02;;;97.53;;
74981;SDS011;63532;50.766;18.944;2024-02-26T07:10:00;336.02;;;90.93;;
74981;SDS011;63532;50.766;18.944;2024-02-26T07:13:06;312.17;;;77.38;;
74981;SDS011;63532;50.766;18.944;2024-02-26T07:16:10;282.15;;;79.90;;
74981;SDS011;63532;50.766;18.944;2024-02-26T07:19:16;360.48;;;106.15;;
74981;SDS011;63532;50.766;18.944;2024-02-26T07:22:21;311.73;;;95.18;;
74981;SDS011;63532;50.766;18.944;2024-02-26T07:25:27;305.20;;;99.10;;
74981;SDS011;63532;50.766;18.944;2024-02-26T07:28:31;329.50;;;110.30;;
74981;SDS011;63532;50.766;18.944;2024-02-26T07:31:36;259.73;;;84.20;;
74981;SDS011;63532;50.766;18.944;2024-02-26T07:34:41;199.98;;;67.60;;
74981;SDS011;63532;50.766;18.944;2024-02-26T07:37:48;171.77;;;55.72;;
74981;SDS011;63532;50.766;18.944;2024-02-26T07:40:53;116.53;;;39.80;;
74981;SDS011;63532;50.766;18.944;2024-02-26T07:44:05;84.55;;;32.95;;
74981;SDS011;63532;50.766;18.944;2024-02-26T07:47:11;93.22;;;32.88;;
74981;SDS011;63532;50.766;18.944;2024-02-26T07:50:17;70.05;;;27.00;;
74981;SDS011;63532;50.766;18.944;2024-02-26T07:53:22;61.97;;;24.30;;
74981;SDS011;63532;50.766;18.944;2024-02-26T07:56:27;53.03;;;21.77;;
74981;SDS011;63532;50.766;18.944;2024-02-26T07:59:31;81.82;;;27.48;;
74981;SDS011;63532;50.766;18.944;2024-02-26T08:02:36;56.10;;;19.13;;
74981;SDS011;63532;50.766;18.944;2024-02-26T08:05:41;33.83;;;11.30;;
74981;SDS011;63532;50.766;18.944;2024-02-26T08:08:47;29.67;;;10.73;;
74981;SDS011;63532;50.766;18.944;2024-02-26T08:11:51;37.83;;;12.15;;
74981;SDS011;63532;50.766;18.944;2024-02-26T08:14:56;44.25;;;11.75;;
74981;SDS011;63532;50.766;18.944;2024-02-26T08:18:01;20.67;;;7.07;;
74981;SDS011;63532;50.766;18.944;2024-02-26T08:21:08;36.83;;;12.10;;
74981;SDS011;63532;50.766;18.944;2024-02-26T08:24:12;17.13;;;7.03;;
74981;SDS011;63532;50.766;18.944;2024-02-26T08:27:17;16.77;;;7.22;;
74981;SDS011;63532;50.766;18.944;2024-02-26T08:30:25;17.77;;;6.85;;
74981;SDS011;63532;50.766;18.944;2024-02-26T08:33:30;18.95;;;5.85;;
74981;SDS011;63532;50.766;18.944;2024-02-26T08:36:38;18.38;;;6.35;;
74981;SDS011;63532;50.766;18.944;2024-02-26T08:39:42;16.98;;;5.28;;
74981;SDS011;63532;50.766;18.944;2024-02-26T08:42:48;16.75;;;5.50;;
74981;SDS011;63532;50.766;18.944;2024-02-26T08:45:52;13.07;;;5.57;;
74981;SDS011;63532;50.766;18.944;2024-02-26T08:48:57;14.27;;;5.00;;
74981;SDS011;63532;50.766;18.944;2024-02-26T08:52:05;14.75;;;5.15;;
74981;SDS011;63532;50.766;18.944;2024-02-26T08:55:09;19.02;;;5.25;;
74981;SDS011;63532;50.766;18.944;2024-02-26T08:58:16;12.70;;;5.10;;
74981;SDS011;63532;50.766;18.944;2024-02-26T09:01:20;12.57;;;4.95;;
74981;SDS011;63532;50.766;18.944;2024-02-26T09:04:26;14.60;;;4.97;;
74981;SDS011;63532;50.766;18.944;2024-02-26T09:07:32;9.93;;;4.35;;
74981;SDS011;63532;50.766;18.944;2024-02-26T09:10:38;10.43;;;4.13;;
74981;SDS011;63532;50.766;18.944;2024-02-26T09:13:42;10.63;;;4.90;;
74981;SDS011;63532;50.766;18.944;2024-02-26T09:16:47;14.68;;;4.45;;
74981;SDS011;63532;50.766;18.944;2024-02-26T09:19:51;9.05;;;3.58;;
74981;SDS011;63532;50.766;18.944;2024-02-26T09:22:57;8.98;;;3.58;;
74981;SDS011;63532;50.766;18.944;2024-02-26T09:26:17;11.02;;;3.17;;
74981;SDS011;63532;50.766;18.944;2024-02-26T09:29:58;8.13;;;2.97;;
74981;SDS011;63532;50.766;18.944;2024-02-26T09:33:03;7.45;;;3.25;;
74981;SDS011;63532;50.766;18.944;2024-02-26T09:36:09;4.97;;;2.45;;
74981;SDS011;63532;50.766;18.944;2024-02-26T09:39:14;8.13;;;2.63;;
74981;SDS011;63532;50.766;18.944;2024-02-26T09:42:25;7.53;;;2.40;;
74981;SDS011;63532;50.766;18.944;2024-02-26T09:45:30;5.70;;;2.00;;
74981;SDS011;63532;50.766;18.944;2024-02-26T09:48:39;14.32;;;4.78;;
74981;SDS011;63532;50.766;18.944;2024-02-26T09:51:46;5.25;;;2.58;;
74981;SDS011;63532;50.766;18.944;2024-02-26T09:54:55;9.73;;;4.03;;
74981;SDS011;63532;50.766;18.944;2024-02-26T09:57:59;6.53;;;2.40;;
74981;SDS011;63532;50.766;18.944;2024-02-26T10:01:06;5.93;;;1.83;;
74981;SDS011;63532;50.766;18.944;2024-02-26T10:04:19;12.20;;;3.65;;
74981;SDS011;63532;50.766;18.944;2024-02-26T10:07:26;7.50;;;2.38;;
74981;SDS011;63532;50.766;18.944;2024-02-26T10:10:34;6.03;;;2.20;;
74981;SDS011;63532;50.766;18.944;2024-02-26T10:13:41;12.18;;;3.65;;
74981;SDS011;63532;50.766;18.944;2024-02-26T10:16:45;5.85;;;2.15;;
74981;SDS011;63532;50.766;18.944;2024-02-26T10:19:50;6.22;;;2.35;;
74981;SDS011;63532;50.766;18.944;2024-02-26T10:22:58;5.65;;;2.17;;
74981;SDS011;63532;50.766;18.944;2024-02-26T10:26:08;5.57;;;2.35;;
74981;SDS011;63532;50.766;18.944;2024-02-26T10:29:15;10.45;;;3.00;;
74981;SDS011;63532;50.766;18.944;2024-02-26T10:32:20;4.13;;;2.00;;
74981;SDS011;63532;50.766;18.944;2024-02-26T10:35:25;6.45;;;2.47;;
74981;SDS011;63532;50.766;18.944;2024-02-26T10:38:32;5.93;;;2.00;;
74981;SDS011;63532;50.766;18.944;2024-02-26T10:41:39;8.18;;;2.85;;
74981;SDS011;63532;50.766;18.944;2024-02-26T10:44:44;9.43;;;2.90;;
74981;SDS011;63532;50.766;18.944;2024-02-26T10:47:51;5.93;;;2.50;;
74981;SDS011;63532;50.766;18.944;2024-02-26T10:50:56;5.63;;;2.40;;
74981;SDS011;63532;50.766;18.944;2024-02-26T10:54:01;9.27;;;2.60;;
74981;SDS011;63532;50.766;18.944;2024-02-26T10:57:14;8.63;;;3.25;;
74981;SDS011;63532;50.766;18.944;2024-02-26T11:00:22;6.65;;;2.78;;
74981;SDS011;63532;50.766;18.944;2024-02-26T11:03:27;6.07;;;2.60;;
74981;SDS011;63532;50.766;18.944;2024-02-26T11:06:38;29.63;;;10.82;;
74981;SDS011;63532;50.766;18.944;2024-02-26T11:09:44;10.65;;;3.72;;
74981;SDS011;63532;50.766;18.944;2024-02-26T11:12:56;7.18;;;2.60;;
74981;SDS011;63532;50.766;18.944;2024-02-26T11:16:05;7.13;;;2.47;;
74981;SDS011;63532;50.766;18.944;2024-02-26T11:19:10;3.65;;;1.50;;
74981;SDS011;63532;50.766;18.944;2024-02-26T11:22:16;5.82;;;2.40;;
74981;SDS011;63532;50.766;18.944;2024-02-26T11:25:25;11.50;;;5.07;;
74981;SDS011;63532;50.766;18.944;2024-02-26T11:28:32;4.65;;;1.85;;
74981;SDS011;63532;50.766;18.944;2024-02-26T11:31:39;5.60;;;2.08;;
74981;SDS011;63532;50.766;18.944;2024-02-26T11:34:44;5.57;;;2.33;;
74981;SDS011;63532;50.766;18.944;2024-02-26T11:37:52;2.88;;;1.38;;
74981;SDS011;63532;50.766;18.944;2024-02-26T11:40:59;4.38;;;2.00;;
74981;SDS011;63532;50.766;18.944;2024-02-26T11:44:05;7.70;;;2.25;;
74981;SDS011;63532;50.766;18.944;2024-02-26T11:47:10;6.03;;;1.70;;
74981;SDS011;63532;50.766;18.944;2024-02-26T11:50:32;3.17;;;1.30;;
74981;SDS011;63532;50.766;18.944;2024-02-26T11:53:45;2.65;;;1.50;;
74981;SDS011;63532;50.766;18.944;2024-02-26T11:56:51;4.15;;;1.70;;
74981;SDS011;63532;50.766;18.944;2024-02-26T12:00:10;4.43;;;1.55;;
74981;SDS011;63532;50.766;18.944;2024-02-26T12:03:17;7.70;;;2.63;;
74981;SDS011;63532;50.766;18.944;2024-02-26T12:06:23;4.38;;;1.42;;
74981;SDS011;63532;50.766;18.944;2024-02-26T12:09:33;8.82;;;2.35;;
74981;SDS011;63532;50.766;18.944;2024-02-26T12:12:40;4.07;;;1.70;;
74981;SDS011;63532;50.766;18.944;2024-02-26T12:15:54;4.50;;;1.70;;
74981;SDS011;63532;50.766;18.944;2024-02-26T12:19:03;8.23;;;3.08;;
74981;SDS011;63532;50.766;18.944;2024-02-26T12:22:11;6.30;;;2.17;;
74981;SDS011;63532;50.766;18.944;2024-02-26T12:25:21;7.28;;;2.75;;
74981;SDS011;63532;50.766;18.944;2024-02-26T12:28:28;2.75;;;1.33;;
74981;SDS011;63532;50.766;18.944;2024-02-26T12:31:34;6.38;;;2.35;;
74981;SDS011;63532;50.766;18.944;2024-02-26T12:34:40;3.38;;;1.30;;
74981;SDS011;63532;50.766;18.944;2024-02-26T12:37:45;7.90;;;1.67;;
74981;SDS011;63532;50.766;18.944;2024-02-26T12:40:50;3.20;;;1.20;;
74981;SDS011;63532;50.766;18.944;2024-02-26T12:43:55;4.93;;;1.35;;
74981;SDS011;63532;50.766;18.944;2024-02-26T12:47:02;4.28;;;1.52;;
74981;SDS011;63532;50.766;18.944;2024-02-26T12:50:09;4.55;;;1.65;;
74981;SDS011;63532;50.766;18.944;2024-02-26T12:53:15;5.15;;;1.60;;
74981;SDS011;63532;50.766;18.944;2024-02-26T12:56:20;3.53;;;1.40;;
74981;SDS011;63532;50.766;18.944;2024-02-26T12:59:26;7.18;;;1.85;;
74981;SDS011;63532;50.766;18.944;2024-02-26T13:02:34;4.22;;;1.63;;
74981;SDS011;63532;50.766;18.944;2024-02-26T13:05:39;4.15;;;1.90;;
74981;SDS011;63532;50.766;18.944;2024-02-26T13:08:45;3.25;;;1.45;;
74981;SDS011;63532;50.766;18.944;2024-02-26T13:11:53;8.15;;;1.98;;
74981;SDS011;63532;50.766;18.944;2024-02-26T13:14:58;4.45;;;1.95;;
74981;SDS011;63532;50.766;18.944;2024-02-26T13:18:10;4.47;;;1.52;;
74981;SDS011;63532;50.766;18.944;2024-02-26T13:21:18;5.35;;;1.67;;
74981;SDS011;63532;50.766;18.944;2024-02-26T13:24:24;3.17;;;1.38;;
74981;SDS011;63532;50.766;18.944;2024-02-26T13:27:29;4.40;;;1.75;;
74981;SDS011;63532;50.766;18.944;2024-02-26T13:30:34;13.65;;;3.22;;
74981;SDS011;63532;50.766;18.944;2024-02-26T13:33:41;6.05;;;1.80;;
74981;SDS011;63532;50.766;18.944;2024-02-26T13:36:50;2.95;;;1.42;;
74981;SDS011;63532;50.766;18.944;2024-02-26T13:39:54;4.35;;;1.50;;
74981;SDS011;63532;50.766;18.944;2024-02-26T13:42:59;4.53;;;1.90;;
74981;SDS011;63532;50.766;18.944;2024-02-26T13:46:04;6.35;;;2.35;;
74981;SDS011;63532;50.766;18.944;2024-02-26T13:49:10;4.53;;;1.90;;
74981;SDS011;63532;50.766;18.944;2024-02-26T13:52:15;6.93;;;2.80;;
